createdAt,value
2018-06-23T00:00:29.268Z,13.11
2018-06-23T00:01:28.719Z,13.11
2018-06-23T00:02:28.963Z,13.17
2018-06-23T00:03:28.950Z,13.14
2018-06-23T00:04:28.673Z,13.21
2018-06-23T00:05:29.189Z,13.18
2018-06-23T00:06:28.641Z,13.18
2018-06-23T00:07:28.628Z,13.2
2018-06-23T00:08:28.880Z,13.12
2018-06-23T00:09:29.133Z,13.21
2018-06-23T00:10:29.111Z,13.18
2018-06-23T00:11:28.828Z,13.12
2018-06-23T00:12:28.823Z,13.14
2018-06-23T00:13:28.798Z,13.17
2018-06-23T00:14:28.788Z,13.14
2018-06-23T00:15:28.773Z,13.07
2018-06-23T00:16:28.491Z,13.22
2018-06-23T00:17:28.475Z,13.11
2018-06-23T00:18:28.467Z,13.14
2018-06-23T00:19:28.719Z,13.12
2018-06-23T00:20:28.957Z,13.17
2018-06-23T00:21:28.944Z,13.2
2018-06-23T00:22:28.663Z,13.18
2018-06-23T00:23:28.922Z,13.18
2018-06-23T00:24:28.902Z,13.22
2018-06-23T00:25:28.622Z,13.2
2018-06-23T00:26:28.875Z,13.27
2018-06-23T00:27:28.341Z,13.15
2018-06-23T00:28:28.846Z,13.3
2018-06-23T00:29:28.301Z,13.22
2018-06-23T00:30:28.812Z,13.25
2018-06-23T00:31:28.539Z,13.18
2018-06-23T00:32:28.256Z,13.21
2018-06-23T00:33:28.969Z,13.17
2018-06-23T00:34:28.487Z,13.11
2018-06-23T00:35:28.518Z,13.15
2018-06-23T00:36:28.745Z,13.12
2018-06-23T00:37:28.450Z,13.09
2018-06-23T00:38:28.693Z,13.03
2018-06-23T00:39:28.681Z,13.04
2018-06-23T00:40:28.145Z,12.96
2018-06-23T00:41:28.122Z,12.96
2018-06-23T00:42:28.375Z,12.99
2018-06-23T00:43:28.355Z,12.97
2018-06-23T00:44:28.349Z,12.92
2018-06-23T00:45:28.061Z,12.99
2018-06-23T00:46:28.585Z,12.87
2018-06-23T00:47:28.548Z,12.95
2018-06-23T00:48:28.285Z,12.88
2018-06-23T00:49:28.270Z,12.93
2018-06-23T00:50:28.355Z,12.89
2018-06-23T00:51:28.499Z,12.88
2018-06-23T00:52:27.960Z,12.95
2018-06-23T00:53:28.207Z,12.92
2018-06-23T00:54:28.195Z,12.96
2018-06-23T00:55:28.203Z,12.97
2018-06-23T00:56:28.425Z,12.97
2018-06-23T00:57:28.540Z,12.95
2018-06-23T00:58:28.394Z,13.03
2018-06-23T00:59:27.861Z,13
2018-06-23T01:00:28.107Z,12.92
2018-06-23T01:01:28.362Z,12.85
2018-06-23T01:02:28.335Z,12.89
2018-06-23T01:03:28.072Z,12.87
2018-06-23T01:04:28.053Z,12.88
2018-06-23T01:05:27.763Z,12.93
2018-06-23T01:06:28.280Z,12.96
2018-06-23T01:07:28.261Z,12.84
2018-06-23T01:08:28.295Z,12.88
2018-06-23T01:09:27.966Z,12.87
2018-06-23T01:10:28.179Z,12.82
2018-06-23T01:11:28.413Z,12.88
2018-06-23T01:12:27.666Z,12.84
2018-06-23T01:13:27.649Z,12.82
2018-06-23T01:14:27.898Z,12.79
2018-06-23T01:15:27.884Z,12.79
2018-06-23T01:16:27.879Z,12.79
2018-06-23T01:17:28.114Z,12.82
2018-06-23T01:18:27.571Z,12.79
2018-06-23T01:19:27.849Z,12.84
2018-06-23T01:20:28.069Z,12.82
2018-06-23T01:21:28.055Z,12.77
2018-06-23T01:22:27.777Z,12.77
2018-06-23T01:23:27.764Z,12.84
2018-06-23T01:24:28.011Z,12.78
2018-06-23T01:25:27.471Z,12.81
2018-06-23T01:26:28.181Z,12.7
2018-06-23T01:27:27.972Z,12.7
2018-06-23T01:28:27.962Z,12.67
2018-06-23T01:29:27.671Z,12.71
2018-06-23T01:30:27.390Z,12.7
2018-06-23T01:31:27.644Z,12.64
2018-06-23T01:32:28.151Z,12.66
2018-06-23T01:33:27.613Z,12.69
2018-06-23T01:34:27.597Z,12.7
2018-06-23T01:35:27.583Z,12.7
2018-06-23T01:36:27.565Z,12.62
2018-06-23T01:37:27.549Z,12.64
2018-06-23T01:38:27.534Z,12.67
2018-06-23T01:39:27.525Z,12.7
2018-06-23T01:40:27.519Z,12.69
2018-06-23T01:41:27.232Z,12.67
2018-06-23T01:42:27.479Z,12.67
2018-06-23T01:43:27.726Z,12.7
2018-06-23T01:44:27.235Z,12.69
2018-06-23T01:45:27.441Z,12.64
2018-06-23T01:46:27.418Z,12.66
2018-06-23T01:47:27.662Z,12.66
2018-06-23T01:48:27.490Z,12.69
2018-06-23T01:49:27.658Z,12.66
2018-06-23T01:50:27.096Z,12.62
2018-06-23T01:51:27.342Z,12.66
2018-06-23T01:52:27.323Z,12.71
2018-06-23T01:53:27.311Z,12.67
2018-06-23T01:54:27.305Z,12.66
2018-06-23T01:55:27.546Z,12.69
2018-06-23T01:56:27.271Z,12.64
2018-06-23T01:57:27.507Z,12.67
2018-06-23T01:58:27.501Z,12.63
2018-06-23T01:59:27.483Z,12.66
2018-06-23T02:00:26.939Z,12.63
2018-06-23T02:01:27.453Z,12.7
2018-06-23T02:02:26.905Z,12.66
2018-06-23T02:03:27.156Z,12.57
2018-06-23T02:04:27.140Z,12.59
2018-06-23T02:05:27.389Z,12.59
2018-06-23T02:06:27.380Z,12.46
2018-06-23T02:07:27.099Z,12.52
2018-06-23T02:08:27.082Z,12.44
2018-06-23T02:09:26.805Z,12.44
2018-06-23T02:10:27.326Z,12.48
2018-06-23T02:11:27.037Z,12.48
2018-06-23T02:12:27.059Z,12.44
2018-06-23T02:13:27.269Z,12.49
2018-06-23T02:14:26.730Z,12.51
2018-06-23T02:15:27.248Z,12.51
2018-06-23T02:16:26.970Z,12.39
2018-06-23T02:17:26.946Z,12.46
2018-06-23T02:18:26.931Z,12.41
2018-06-23T02:19:26.653Z,12.37
2018-06-23T02:20:26.907Z,12.38
2018-06-23T02:21:27.150Z,12.46
2018-06-23T02:22:27.182Z,12.45
2018-06-23T02:23:26.859Z,12.51
2018-06-23T02:24:26.839Z,12.48
2018-06-23T02:25:26.828Z,12.48
2018-06-23T02:26:27.074Z,12.37
2018-06-23T02:27:26.794Z,12.48
2018-06-23T02:28:27.049Z,12.48
2018-06-23T02:29:26.501Z,12.52
2018-06-23T02:30:27.017Z,12.37
2018-06-23T02:31:26.999Z,12.45
2018-06-23T02:32:26.987Z,12.34
2018-06-23T02:33:26.705Z,12.37
2018-06-23T02:34:26.690Z,12.34
2018-06-23T02:35:26.947Z,12.34
2018-06-23T02:36:26.662Z,12.41
2018-06-23T02:37:26.378Z,12.38
2018-06-23T02:38:26.629Z,12.33
2018-06-23T02:39:26.621Z,12.27
2018-06-23T02:40:26.598Z,12.29
2018-06-23T02:41:26.582Z,12.33
2018-06-23T02:42:26.569Z,12.24
2018-06-23T02:43:26.552Z,12.26
2018-06-23T02:44:26.802Z,12.21
2018-06-23T02:45:26.258Z,12.19
2018-06-23T02:46:26.507Z,12.21
2018-06-23T02:47:26.757Z,12.21
2018-06-23T02:48:26.745Z,12.21
2018-06-23T02:49:26.723Z,12.2
2018-06-23T02:50:26.457Z,12.13
2018-06-23T02:51:26.164Z,12.15
2018-06-23T02:52:26.705Z,12.12
2018-06-23T02:53:26.134Z,12.02
2018-06-23T02:54:26.384Z,12.04
2018-06-23T02:55:26.644Z,11.99
2018-06-23T02:56:26.613Z,12.02
2018-06-23T02:57:26.072Z,11.97
2018-06-23T02:58:26.323Z,11.87
2018-06-23T02:59:26.309Z,11.89
2018-06-23T03:00:26.288Z,11.78
2018-06-23T03:01:26.546Z,11.77
2018-06-23T03:02:26.526Z,11.83
2018-06-23T03:03:26.244Z,11.8
2018-06-23T03:04:26.487Z,11.65
2018-06-23T03:05:26.269Z,11.67
2018-06-23T03:06:26.194Z,11.72
2018-06-23T03:07:26.184Z,11.68
2018-06-23T03:08:26.162Z,11.68
2018-06-23T03:09:26.408Z,11.68
2018-06-23T03:10:26.401Z,11.72
2018-06-23T03:11:26.126Z,11.67
2018-06-23T03:12:26.364Z,11.68
2018-06-23T03:13:25.984Z,11.7
2018-06-23T03:14:26.068Z,11.67
2018-06-23T03:15:26.057Z,11.67
2018-06-23T03:16:26.310Z,11.59
2018-06-23T03:17:26.291Z,11.57
2018-06-23T03:18:26.275Z,11.67
2018-06-23T03:19:26.271Z,11.64
2018-06-23T03:20:26.438Z,11.62
2018-06-23T03:21:26.230Z,11.65
2018-06-23T03:22:25.945Z,11.68
2018-06-23T03:23:26.192Z,11.75
2018-06-23T03:24:26.188Z,11.71
2018-06-23T03:25:25.905Z,11.68
2018-06-23T03:26:26.144Z,11.72
2018-06-23T03:27:25.616Z,11.75
2018-06-23T03:28:26.111Z,11.86
2018-06-23T03:29:25.562Z,11.83
2018-06-23T03:30:26.094Z,11.75
2018-06-23T03:31:25.814Z,11.87
2018-06-23T03:32:25.783Z,11.94
2018-06-23T03:33:25.768Z,11.94
2018-06-23T03:34:25.760Z,11.9
2018-06-23T03:35:25.740Z,11.89
2018-06-23T03:36:25.462Z,11.78
2018-06-23T03:37:26.006Z,11.94
2018-06-23T03:38:25.426Z,11.78
2018-06-23T03:39:25.679Z,11.89
2018-06-23T03:40:25.661Z,11.9
2018-06-23T03:41:25.389Z,11.87
2018-06-23T03:42:25.697Z,11.89
2018-06-23T03:43:25.348Z,11.9
2018-06-23T03:44:25.595Z,11.9
2018-06-23T03:45:25.850Z,11.9
2018-06-23T03:46:25.839Z,11.94
2018-06-23T03:47:25.553Z,11.94
2018-06-23T03:48:25.272Z,11.89
2018-06-23T03:49:25.522Z,11.85
2018-06-23T03:50:25.514Z,11.86
2018-06-23T03:51:25.226Z,11.97
2018-06-23T03:52:25.205Z,11.99
2018-06-23T03:53:25.459Z,11.94
2018-06-23T03:54:25.705Z,11.96
2018-06-23T03:55:25.423Z,11.9
2018-06-23T03:56:25.405Z,12.08
2018-06-23T03:57:25.396Z,12.04
2018-06-23T03:58:25.114Z,12.05
2018-06-23T03:59:25.360Z,12.12
2018-06-23T04:00:25.348Z,12.09
2018-06-23T04:01:25.064Z,12.13
2018-06-23T04:02:25.313Z,12.08
2018-06-23T04:03:25.561Z,12.12
2018-06-23T04:04:25.281Z,12.11
2018-06-23T04:05:25.533Z,12.13
2018-06-23T04:06:24.990Z,12.15
2018-06-23T04:07:25.505Z,12.08
2018-06-23T04:08:25.484Z,12.11
2018-06-23T04:09:25.204Z,12.02
2018-06-23T04:10:25.186Z,12.09
2018-06-23T04:11:25.207Z,12.09
2018-06-23T04:12:24.896Z,12.11
2018-06-23T04:13:25.413Z,12.04
2018-06-23T04:14:24.876Z,12.12
2018-06-23T04:15:25.112Z,12.04
2018-06-23T04:16:25.097Z,12.09
2018-06-23T04:17:25.086Z,12.04
2018-06-23T04:18:24.800Z,12.04
2018-06-23T04:19:25.317Z,12.05
2018-06-23T04:20:25.037Z,12.08
2018-06-23T04:21:25.283Z,12.05
2018-06-23T04:22:25.004Z,12.05
2018-06-23T04:23:24.720Z,12.12
2018-06-23T04:24:24.975Z,12.11
2018-06-23T04:25:24.959Z,12.19
2018-06-23T04:26:25.205Z,12.2
2018-06-23T04:27:24.925Z,12.29
2018-06-23T04:28:24.906Z,12.26
2018-06-23T04:29:25.271Z,12.26
2018-06-23T04:30:24.879Z,12.21
2018-06-23T04:31:24.874Z,12.27
2018-06-23T04:32:24.844Z,12.24
2018-06-23T04:33:24.841Z,12.29
2018-06-23T04:34:24.554Z,12.24
2018-06-23T04:35:25.062Z,12.2
2018-06-23T04:36:24.780Z,12.26
2018-06-23T04:37:25.047Z,12.16
2018-06-23T04:38:24.763Z,12.27
2018-06-23T04:39:24.738Z,12.21
2018-06-23T04:40:24.987Z,12.23
2018-06-23T04:41:24.705Z,12.23
2018-06-23T04:42:24.427Z,12.29
2018-06-23T04:43:24.675Z,12.33
2018-06-23T04:44:24.921Z,12.3
2018-06-23T04:45:24.641Z,12.29
2018-06-23T04:46:24.898Z,12.26
2018-06-23T04:47:24.875Z,12.24
2018-06-23T04:48:24.345Z,12.29
2018-06-23T04:49:24.854Z,12.33
2018-06-23T04:50:24.566Z,12.42
2018-06-23T04:51:24.821Z,12.38
2018-06-23T04:52:24.545Z,12.41
2018-06-23T04:53:24.794Z,12.46
2018-06-23T04:54:24.767Z,12.45
2018-06-23T04:55:24.518Z,12.39
2018-06-23T04:56:24.762Z,12.48
2018-06-23T04:57:24.468Z,12.44
2018-06-23T04:58:24.445Z,12.39
2018-06-23T04:59:24.169Z,12.39
2018-06-23T05:00:24.785Z,12.41
2018-06-23T05:01:24.401Z,12.54
2018-06-23T05:02:24.683Z,12.52
2018-06-23T05:03:24.677Z,12.52
2018-06-23T05:04:24.355Z,12.49
2018-06-23T05:05:24.075Z,12.49
2018-06-23T05:06:24.325Z,12.48
2018-06-23T05:07:24.308Z,12.39
2018-06-23T05:08:24.555Z,12.56
2018-06-23T05:09:24.272Z,12.44
2018-06-23T05:10:24.013Z,12.29
2018-06-23T05:11:24.247Z,12.46
2018-06-23T05:12:24.748Z,12.49
2018-06-23T05:13:24.220Z,12.44
2018-06-23T05:14:24.203Z,12.49
2018-06-23T05:15:24.186Z,12.49
2018-06-23T05:16:24.439Z,12.48
2018-06-23T05:17:23.894Z,12.46
2018-06-23T05:18:24.142Z,12.52
2018-06-23T05:19:24.394Z,12.59
2018-06-23T05:20:24.454Z,12.54
2018-06-23T05:21:23.828Z,12.49
2018-06-23T05:22:24.365Z,12.52
2018-06-23T05:23:24.064Z,12.49
2018-06-23T05:24:23.784Z,12.51
2018-06-23T05:25:24.047Z,12.56
2018-06-23T05:26:24.019Z,12.45
2018-06-23T05:27:24.301Z,12.51
2018-06-23T05:28:23.732Z,12.54
2018-06-23T05:29:23.977Z,12.49
2018-06-23T05:30:24.231Z,12.48
2018-06-23T05:31:23.944Z,12.48
2018-06-23T05:32:23.666Z,12.49
2018-06-23T05:33:23.915Z,12.46
2018-06-23T05:34:24.160Z,12.52
2018-06-23T05:35:23.890Z,12.49
2018-06-23T05:36:24.132Z,12.48
2018-06-23T05:37:23.587Z,12.56
2018-06-23T05:38:23.834Z,12.54
2018-06-23T05:39:23.832Z,12.51
2018-06-23T05:40:24.079Z,12.46
2018-06-23T05:41:23.806Z,12.52
2018-06-23T05:42:23.774Z,12.52
2018-06-23T05:43:24.083Z,12.49
2018-06-23T05:44:24.016Z,12.52
2018-06-23T05:45:23.998Z,12.52
2018-06-23T05:46:23.722Z,12.64
2018-06-23T05:47:23.972Z,12.64
2018-06-23T05:48:23.691Z,12.59
2018-06-23T05:49:23.935Z,12.64
2018-06-23T05:50:23.654Z,12.62
2018-06-23T05:51:24.085Z,12.64
2018-06-23T05:52:23.621Z,12.69
2018-06-23T05:53:23.609Z,12.64
2018-06-23T05:54:23.858Z,12.67
2018-06-23T05:55:23.579Z,12.64
2018-06-23T05:56:23.578Z,12.67
2018-06-23T05:57:23.811Z,12.66
2018-06-23T05:58:23.802Z,12.7
2018-06-23T05:59:23.523Z,12.7
2018-06-23T06:00:23.246Z,12.7
2018-06-23T06:01:23.753Z,12.75
2018-06-23T06:02:23.740Z,12.71
2018-06-23T06:03:23.196Z,12.69
2018-06-23T06:04:23.444Z,12.7
2018-06-23T06:05:23.834Z,12.67
2018-06-23T06:06:23.417Z,12.66
2018-06-23T06:07:23.132Z,12.79
2018-06-23T06:08:23.652Z,12.74
2018-06-23T06:09:23.106Z,12.75
2018-06-23T06:10:23.352Z,12.78
2018-06-23T06:11:23.346Z,12.84
2018-06-23T06:12:23.322Z,12.88
2018-06-23T06:13:23.341Z,12.95
2018-06-23T06:14:23.297Z,12.99
2018-06-23T06:15:23.014Z,12.89
2018-06-23T06:16:23.287Z,12.99
2018-06-23T06:17:23.249Z,12.99
2018-06-23T06:18:23.239Z,12.96
2018-06-23T06:19:23.490Z,13.02
2018-06-23T06:20:23.463Z,13.04
2018-06-23T06:21:22.923Z,13.09
2018-06-23T06:22:23.444Z,13.17
2018-06-23T06:23:23.159Z,13.17
2018-06-23T06:24:23.149Z,13.21
2018-06-23T06:25:23.404Z,13.29
2018-06-23T06:26:22.851Z,13.55
2018-06-23T06:27:22.838Z,13.61
2018-06-23T06:28:23.092Z,13.62
2018-06-23T06:29:23.394Z,13.74
2018-06-23T06:30:23.061Z,13.76
2018-06-23T06:31:23.049Z,13.87
2018-06-23T06:32:23.034Z,13.84
2018-06-23T06:33:23.018Z,13.88
2018-06-23T06:34:23.000Z,13.81
2018-06-23T06:35:23.250Z,13.95
2018-06-23T06:36:22.970Z,13.95
2018-06-23T06:37:22.960Z,13.94
2018-06-23T06:38:22.683Z,13.89
2018-06-23T06:39:23.200Z,13.96
2018-06-23T06:40:23.179Z,13.94
2018-06-23T06:41:22.642Z,13.98
2018-06-23T06:42:22.626Z,13.95
2018-06-23T06:43:23.152Z,13.94
2018-06-23T06:44:23.128Z,13.89
2018-06-23T06:45:22.586Z,13.94
2018-06-23T06:46:22.882Z,14.02
2018-06-23T06:47:23.090Z,14.07
2018-06-23T06:48:22.805Z,14.2
2018-06-23T06:49:22.795Z,14.21
2018-06-23T06:50:22.794Z,14.19
2018-06-23T06:51:22.768Z,14.21
2018-06-23T06:52:23.022Z,14.13
2018-06-23T06:53:22.740Z,14.13
2018-06-23T06:54:22.720Z,14.16
2018-06-23T06:55:22.707Z,14.13
2018-06-23T06:56:22.697Z,14.16
2018-06-23T06:57:22.944Z,14.04
2018-06-23T06:58:22.663Z,14.1
2018-06-23T06:59:22.966Z,14.13
2018-06-23T07:00:22.636Z,14.13
2018-06-23T07:01:22.627Z,14.17
2018-06-23T07:02:22.924Z,14.34
2018-06-23T07:03:22.605Z,14.47
2018-06-23T07:04:22.325Z,14.46
2018-06-23T07:05:22.834Z,14.5
2018-06-23T07:06:22.290Z,14.47
2018-06-23T07:07:22.873Z,14.44
2018-06-23T07:08:22.536Z,14.44
2018-06-23T07:09:22.515Z,14.47
2018-06-23T07:10:22.768Z,14.49
2018-06-23T07:11:22.495Z,14.46
2018-06-23T07:12:22.475Z,14.49
2018-06-23T07:13:22.730Z,14.54
2018-06-23T07:14:22.715Z,14.75
2018-06-23T07:15:22.702Z,14.72
2018-06-23T07:16:22.158Z,14.75
2018-06-23T07:17:22.419Z,14.65
2018-06-23T07:18:22.663Z,14.71
2018-06-23T07:19:22.654Z,14.71
2018-06-23T07:20:22.312Z,14.68
2018-06-23T07:21:22.367Z,14.72
2018-06-23T07:22:22.341Z,14.75
2018-06-23T07:23:22.328Z,14.84
2018-06-23T07:24:22.051Z,14.87
2018-06-23T07:25:22.299Z,14.93
2018-06-23T07:26:22.297Z,14.95
2018-06-23T07:27:22.278Z,14.99
2018-06-23T07:28:22.527Z,14.99
2018-06-23T07:29:22.258Z,14.94
2018-06-23T07:30:21.982Z,14.95
2018-06-23T07:31:22.228Z,14.95
2018-06-23T07:32:22.489Z,14.98
2018-06-23T07:33:22.205Z,14.95
2018-06-23T07:34:22.770Z,15.12
2018-06-23T07:35:21.912Z,15.24
2018-06-23T07:36:21.903Z,15.26
2018-06-23T07:37:22.424Z,15.27
2018-06-23T07:38:22.131Z,15.26
2018-06-23T07:39:22.385Z,15.3
2018-06-23T07:40:21.845Z,15.36
2018-06-23T07:41:22.099Z,15.43
2018-06-23T07:42:22.356Z,15.39
2018-06-23T07:43:22.333Z,15.52
2018-06-23T07:44:22.069Z,15.45
2018-06-23T07:45:22.311Z,15.54
2018-06-23T07:46:22.036Z,15.66
2018-06-23T07:47:22.023Z,15.64
2018-06-23T07:48:22.015Z,15.79
2018-06-23T07:49:21.999Z,16.27
2018-06-23T07:50:21.984Z,16.45
2018-06-23T07:51:21.982Z,16.42
2018-06-23T07:52:21.964Z,16.45
2018-06-23T07:53:21.692Z,16.38
2018-06-23T07:54:22.216Z,16.2
2018-06-23T07:55:22.202Z,16.18
2018-06-23T07:56:22.409Z,16.14
2018-06-23T07:57:21.911Z,16.16
2018-06-23T07:58:22.162Z,16.18
2018-06-23T07:59:21.622Z,16.3
2018-06-23T08:00:21.607Z,16.96
2018-06-23T08:01:21.859Z,17.17
2018-06-23T08:02:21.848Z,17.04
2018-06-23T08:03:21.838Z,16.95
2018-06-23T08:04:21.833Z,17.69
2018-06-23T08:05:21.553Z,18.67
2018-06-23T08:06:21.546Z,19.58
2018-06-23T08:07:22.067Z,20.49
2018-06-23T08:08:22.052Z,21.42
2018-06-23T08:09:21.510Z,22.01
2018-06-23T08:10:21.766Z,22.69
2018-06-23T08:11:21.504Z,21.6
2018-06-23T08:12:21.750Z,20.62
2018-06-23T08:13:22.016Z,19.88
2018-06-23T08:14:21.734Z,19.31
2018-06-23T08:15:21.460Z,18.61
2018-06-23T08:16:21.989Z,18.15
2018-06-23T08:17:21.713Z,18.62
2018-06-23T08:18:21.709Z,19.08
2018-06-23T08:19:21.431Z,19.43
2018-06-23T08:20:21.949Z,19.5
2018-06-23T08:21:21.680Z,19.93
2018-06-23T08:22:21.411Z,20.81
2018-06-23T08:23:21.663Z,20.72
2018-06-23T08:24:21.919Z,21.11
2018-06-23T08:25:21.389Z,21.54
2018-06-23T08:26:21.458Z,22.19
2018-06-23T08:27:21.368Z,23.07
2018-06-23T08:28:21.634Z,23.55
2018-06-23T08:29:21.888Z,23.17
2018-06-23T08:30:21.621Z,22.09
2018-06-23T08:31:21.872Z,21.21
2018-06-23T08:32:21.867Z,20.43
2018-06-23T08:33:21.333Z,19.98
2018-06-23T08:34:21.602Z,19.38
2018-06-23T08:35:21.588Z,18.83
2018-06-23T08:36:21.841Z,18.7
2018-06-23T08:37:21.833Z,18.46
2018-06-23T08:38:21.825Z,18.47
2018-06-23T08:39:21.560Z,18.43
2018-06-23T08:40:21.552Z,18.27
2018-06-23T08:41:21.541Z,18.1
2018-06-23T08:42:21.268Z,18.07
2018-06-23T08:43:21.525Z,18.15
2018-06-23T08:44:21.517Z,18.02
2018-06-23T08:45:21.509Z,18.07
2018-06-23T08:46:21.770Z,18.46
2018-06-23T08:47:21.756Z,18.61
2018-06-23T08:48:21.485Z,19.02
2018-06-23T08:49:21.214Z,19.05
2018-06-23T08:50:21.733Z,18.97
2018-06-23T08:51:21.729Z,19.54
2018-06-23T08:52:21.457Z,19.8
2018-06-23T08:53:21.185Z,20.15
2018-06-23T08:54:21.438Z,19.72
2018-06-23T08:55:21.719Z,19.47
2018-06-23T08:56:21.691Z,19.47
2018-06-23T08:57:21.423Z,19.8
2018-06-23T08:58:21.150Z,19.66
2018-06-23T08:59:21.672Z,19.4
2018-06-23T09:00:21.405Z,19.39
2018-06-23T09:01:21.393Z,19.97
2018-06-23T09:02:21.662Z,20.58
2018-06-23T09:03:21.115Z,21.41
2018-06-23T09:04:21.378Z,22.06
2018-06-23T09:05:21.129Z,22.83
2018-06-23T09:06:21.631Z,23.4
2018-06-23T09:07:21.634Z,23.42
2018-06-23T09:08:21.359Z,23.76
2018-06-23T09:09:21.360Z,23.77
2018-06-23T09:10:21.369Z,22.83
2018-06-23T09:11:21.605Z,21.97
2018-06-23T09:12:21.599Z,21.39
2018-06-23T09:13:21.596Z,21.23
2018-06-23T09:14:21.327Z,21.13
2018-06-23T09:15:21.330Z,21.06
2018-06-23T09:16:21.316Z,21.06
2018-06-23T09:17:21.049Z,21.29
2018-06-23T09:18:21.308Z,21.23
2018-06-23T09:19:21.037Z,20.74
2018-06-23T09:20:21.295Z,20.5
2018-06-23T09:21:21.560Z,20.28
2018-06-23T09:22:21.288Z,20.06
2018-06-23T09:23:21.283Z,20.09
2018-06-23T09:24:21.565Z,20.31
2018-06-23T09:25:22.941Z,19.95
2018-06-23T09:26:22.098Z,19.75
2018-06-23T09:27:21.687Z,19.53
2018-06-23T09:28:21.289Z,19.55
2018-06-23T09:29:21.517Z,20.35
2018-06-23T09:30:21.253Z,20.34
2018-06-23T09:31:21.512Z,20.49
2018-06-23T09:32:21.443Z,20.91
2018-06-23T09:33:21.492Z,21.42
2018-06-23T09:34:21.542Z,21.29
2018-06-23T09:35:21.499Z,21.34
2018-06-23T09:36:21.217Z,21.78
2018-06-23T09:37:21.216Z,22.17
2018-06-23T09:38:21.502Z,22.68
2018-06-23T09:39:21.206Z,23.07
2018-06-23T09:40:21.487Z,22.86
2018-06-23T09:41:21.463Z,22.47
2018-06-23T09:42:21.191Z,22.52
2018-06-23T09:43:20.933Z,22.62
2018-06-23T09:44:21.450Z,22.38
2018-06-23T09:45:21.447Z,22.35
2018-06-23T09:46:21.432Z,22.09
2018-06-23T09:47:21.439Z,21.82
2018-06-23T09:48:21.168Z,21.5
2018-06-23T09:49:20.901Z,21.29
2018-06-23T09:50:20.892Z,20.84
2018-06-23T09:51:21.435Z,20.76
2018-06-23T09:52:21.414Z,20.3
2018-06-23T09:53:21.150Z,20.15
2018-06-23T09:54:20.870Z,20.08
2018-06-23T09:55:20.860Z,19.97
2018-06-23T09:56:21.126Z,20.12
2018-06-23T09:57:21.121Z,20.24
2018-06-23T09:58:20.859Z,20.3
2018-06-23T09:59:21.112Z,20.41
2018-06-23T10:00:21.112Z,20.69
2018-06-23T10:01:21.102Z,20.9
2018-06-23T10:02:21.353Z,20.81
2018-06-23T10:03:20.825Z,20.58
2018-06-23T10:04:20.816Z,20.46
2018-06-23T10:05:21.080Z,20.43
2018-06-23T10:06:21.075Z,20.5
2018-06-23T10:07:21.231Z,20.5
2018-06-23T10:08:21.344Z,20.42
2018-06-23T10:09:21.056Z,20.87
2018-06-23T10:10:21.059Z,20.81
2018-06-23T10:11:20.772Z,20.77
2018-06-23T10:12:21.293Z,20.69
2018-06-23T10:13:21.038Z,20.43
2018-06-23T10:14:21.025Z,20.3
2018-06-23T10:15:21.343Z,20.28
2018-06-23T10:16:20.751Z,20.2
2018-06-23T10:17:21.001Z,20.27
2018-06-23T10:18:20.742Z,20.3
2018-06-23T10:19:20.733Z,20.2
2018-06-23T10:20:21.266Z,20.15
2018-06-23T10:21:20.991Z,20.24
2018-06-23T10:22:20.986Z,20.21
2018-06-23T10:23:21.254Z,20.13
2018-06-23T10:24:21.230Z,20.03
2018-06-23T10:25:21.223Z,19.88
2018-06-23T10:26:21.226Z,19.79
2018-06-23T10:27:20.717Z,19.73
2018-06-23T10:28:21.207Z,19.66
2018-06-23T10:29:21.206Z,19.51
2018-06-23T10:30:20.682Z,19.73
2018-06-23T10:31:21.184Z,19.72
2018-06-23T10:32:21.183Z,19.87
2018-06-23T10:33:20.912Z,19.86
2018-06-23T10:34:21.223Z,19.98
2018-06-23T10:35:21.162Z,19.94
2018-06-23T10:36:20.899Z,19.94
2018-06-23T10:37:20.904Z,20.09
2018-06-23T10:38:21.014Z,20.16
2018-06-23T10:39:20.865Z,20.1
2018-06-23T10:40:20.614Z,19.84
2018-06-23T10:41:21.120Z,19.79
2018-06-23T10:42:20.841Z,19.86
2018-06-23T10:43:21.107Z,19.86
2018-06-23T10:44:20.833Z,19.9
2018-06-23T10:45:20.839Z,19.83
2018-06-23T10:46:21.199Z,19.76
2018-06-23T10:47:21.100Z,19.9
2018-06-23T10:48:20.807Z,19.98
2018-06-23T10:49:20.807Z,19.93
2018-06-23T10:50:20.800Z,19.87
2018-06-23T10:51:21.055Z,20.02
2018-06-23T10:52:21.053Z,20.13
2018-06-23T10:53:20.777Z,20.39
2018-06-23T10:54:20.774Z,20.38
2018-06-23T10:55:20.763Z,20.3
2018-06-23T10:56:20.740Z,20.2
2018-06-23T10:57:20.999Z,20.09
2018-06-23T10:58:20.746Z,19.93
2018-06-23T10:59:20.465Z,19.97
2018-06-23T11:00:20.984Z,20
2018-06-23T11:01:20.716Z,19.98
2018-06-23T11:02:20.711Z,20.23
2018-06-23T11:03:20.693Z,20.74
2018-06-23T11:04:20.686Z,21.08
2018-06-23T11:05:20.986Z,21.24
2018-06-23T11:06:20.689Z,21.38
2018-06-23T11:07:20.672Z,21.51
2018-06-23T11:08:20.945Z,21.46
2018-06-23T11:09:20.657Z,21.48
2018-06-23T11:10:20.913Z,21.42
2018-06-23T11:11:20.916Z,21.24
2018-06-23T11:12:20.373Z,21.26
2018-06-23T11:13:20.642Z,21.34
2018-06-23T11:14:20.635Z,21.24
2018-06-23T11:15:20.898Z,21.06
2018-06-23T11:16:20.904Z,20.84
2018-06-23T11:17:20.903Z,20.87
2018-06-23T11:18:20.620Z,20.8
2018-06-23T11:19:20.638Z,20.74
2018-06-23T11:20:20.861Z,20.72
2018-06-23T11:21:20.859Z,20.59
2018-06-23T11:22:20.840Z,20.49
2018-06-23T11:23:20.583Z,20.46
2018-06-23T11:24:20.400Z,20.35
2018-06-23T11:25:21.030Z,20.43
2018-06-23T11:26:20.559Z,20.27
2018-06-23T11:27:20.282Z,20.39
2018-06-23T11:28:20.811Z,20.51
2018-06-23T11:29:20.801Z,20.53
2018-06-23T11:30:20.791Z,20.62
2018-06-23T11:31:20.531Z,20.43
2018-06-23T11:32:20.250Z,20.5
2018-06-23T11:33:20.505Z,20.42
2018-06-23T11:34:20.779Z,20.41
2018-06-23T11:35:20.499Z,20.46
2018-06-23T11:36:20.490Z,20.5
2018-06-23T11:37:20.747Z,20.5
2018-06-23T11:38:20.473Z,20.46
2018-06-23T11:39:20.732Z,20.5
2018-06-23T11:40:20.733Z,20.51
2018-06-23T11:41:21.017Z,20.51
2018-06-23T11:42:20.189Z,20.62
2018-06-23T11:43:20.175Z,20.74
2018-06-23T11:44:20.711Z,20.59
2018-06-23T11:45:20.427Z,20.69
2018-06-23T11:46:20.691Z,20.61
2018-06-23T11:47:20.681Z,20.56
2018-06-23T11:48:20.672Z,20.71
2018-06-23T11:49:20.670Z,20.93
2018-06-23T11:50:20.130Z,21.13
2018-06-23T11:51:20.241Z,21.29
2018-06-23T11:52:20.237Z,21.21
2018-06-23T11:53:20.371Z,21.41
2018-06-23T11:54:20.628Z,21.59
2018-06-23T11:55:20.622Z,21.63
2018-06-23T11:56:20.613Z,21.69
2018-06-23T11:57:20.606Z,21.63
2018-06-23T11:58:20.342Z,21.63
2018-06-23T11:59:20.616Z,21.54
2018-06-23T12:00:20.342Z,21.3
2018-06-23T12:01:20.590Z,21.13
2018-06-23T12:02:20.583Z,20.84
2018-06-23T12:03:20.345Z,20.74
2018-06-23T12:04:20.358Z,20.62
2018-06-23T12:05:20.656Z,20.41
2018-06-23T12:06:20.034Z,20.33
2018-06-23T12:07:20.285Z,20.41
2018-06-23T12:08:20.300Z,20.53
2018-06-23T12:09:20.464Z,20.71
2018-06-23T12:10:20.535Z,20.93
2018-06-23T12:11:20.260Z,21.16
2018-06-23T12:12:20.261Z,21.26
2018-06-23T12:13:20.508Z,21.51
2018-06-23T12:14:20.556Z,21.78
2018-06-23T12:15:20.247Z,21.9
2018-06-23T12:16:19.968Z,22.07
2018-06-23T12:17:20.493Z,22.31
2018-06-23T12:18:20.219Z,22.52
2018-06-23T12:19:20.487Z,22.49
2018-06-23T12:20:20.530Z,22.29
2018-06-23T12:21:20.494Z,22.22
2018-06-23T12:22:20.195Z,22.34
2018-06-23T12:23:20.454Z,22.32
2018-06-23T12:24:20.182Z,22.27
2018-06-23T12:25:20.325Z,22.2
2018-06-23T12:26:20.443Z,22.07
2018-06-23T12:27:20.443Z,21.64
2018-06-23T12:28:20.164Z,21.57
2018-06-23T12:29:20.424Z,21.27
2018-06-23T12:30:20.175Z,21.26
2018-06-23T12:31:20.406Z,21.09
2018-06-23T12:32:20.183Z,20.98
2018-06-23T12:33:20.239Z,20.8
2018-06-23T12:34:20.208Z,20.66
2018-06-23T12:35:20.390Z,20.5
2018-06-23T12:36:19.854Z,20.41
2018-06-23T12:37:20.382Z,20.3
2018-06-23T12:38:20.385Z,20.24
2018-06-23T12:39:20.100Z,20.25
2018-06-23T12:40:19.862Z,20.2
2018-06-23T12:41:19.824Z,20.13
2018-06-23T12:42:20.102Z,20.13
2018-06-23T12:43:19.815Z,20.2
2018-06-23T12:44:20.332Z,20.23
2018-06-23T12:45:19.791Z,20.31
2018-06-23T12:46:20.052Z,20.34
2018-06-23T12:47:19.788Z,20.31
2018-06-23T12:48:20.111Z,20.25
2018-06-23T12:49:20.030Z,20.09
2018-06-23T12:50:20.037Z,20.12
2018-06-23T12:51:20.017Z,20.09
2018-06-23T12:52:20.272Z,20.23
2018-06-23T12:53:20.008Z,20.34
2018-06-23T12:54:20.270Z,20.41
2018-06-23T12:55:20.253Z,20.51